sensor_id;sensor_type;location;lat;lon;timestamp;P1;durP1;ratioP1;P2;durP2;ratioP2
44189;SDS011;29856;52.144;5.430;2024-03-07T00:01:37;56.92;;;31.23;;
44189;SDS011;29856;52.144;5.430;2024-03-07T00:04:03;59.70;;;33.08;;
44189;SDS011;29856;52.144;5.430;2024-03-07T00:06:29;54.00;;;29.90;;
44189;SDS011;29856;52.144;5.430;2024-03-07T00:08:55;54.33;;;29.77;;
44189;SDS011;29856;52.144;5.430;2024-03-07T00:11:21;53.38;;;30.23;;
44189;SDS011;29856;52.144;5.430;2024-03-07T00:13:47;53.90;;;28.30;;
44189;SDS011;29856;52.144;5.430;2024-03-07T00:16:13;51.95;;;29.63;;
44189;SDS011;29856;52.144;5.430;2024-03-07T00:18:39;57.30;;;29.80;;
44189;SDS011;29856;52.144;5.430;2024-03-07T00:21:04;56.03;;;30.80;;
44189;SDS011;29856;52.144;5.430;2024-03-07T00:23:30;52.10;;;27.85;;
44189;SDS011;29856;52.144;5.430;2024-03-07T00:25:56;50.60;;;27.90;;
44189;SDS011;29856;52.144;5.430;2024-03-07T00:28:22;57.28;;;29.35;;
44189;SDS011;29856;52.144;5.430;2024-03-07T00:30:48;50.47;;;27.85;;
44189;SDS011;29856;52.144;5.430;2024-03-07T00:33:14;53.38;;;28.67;;
44189;SDS011;29856;52.144;5.430;2024-03-07T00:35:40;53.85;;;27.80;;
44189;SDS011;29856;52.144;5.430;2024-03-07T00:38:06;49.97;;;26.55;;
44189;SDS011;29856;52.144;5.430;2024-03-07T00:40:32;53.28;;;28.25;;
44189;SDS011;29856;52.144;5.430;2024-03-07T00:42:58;54.90;;;27.75;;
44189;SDS011;29856;52.144;5.430;2024-03-07T00:45:24;51.55;;;28.05;;
44189;SDS011;29856;52.144;5.430;2024-03-07T00:47:49;56.30;;;31.42;;
44189;SDS011;29856;52.144;5.430;2024-03-07T00:50:15;59.35;;;30.73;;
44189;SDS011;29856;52.144;5.430;2024-03-07T00:52:41;59.97;;;29.55;;
44189;SDS011;29856;52.144;5.430;2024-03-07T00:55:07;54.58;;;29.77;;
44189;SDS011;29856;52.144;5.430;2024-03-07T00:57:33;52.30;;;29.10;;
44189;SDS011;29856;52.144;5.430;2024-03-07T00:59:59;56.17;;;31.55;;
44189;SDS011;29856;52.144;5.430;2024-03-07T01:02:25;54.72;;;28.95;;
44189;SDS011;29856;52.144;5.430;2024-03-07T01:04:51;57.28;;;30.75;;
44189;SDS011;29856;52.144;5.430;2024-03-07T01:07:17;53.28;;;29.98;;
44189;SDS011;29856;52.144;5.430;2024-03-07T01:09:42;59.67;;;29.23;;
44189;SDS011;29856;52.144;5.430;2024-03-07T01:12:08;55.80;;;30.27;;
44189;SDS011;29856;52.144;5.430;2024-03-07T01:14:34;56.03;;;29.35;;
44189;SDS011;29856;52.144;5.430;2024-03-07T01:17:00;52.85;;;28.13;;
44189;SDS011;29856;52.144;5.430;2024-03-07T01:19:26;56.95;;;31.10;;
44189;SDS011;29856;52.144;5.430;2024-03-07T01:21:52;50.65;;;28.20;;
44189;SDS011;29856;52.144;5.430;2024-03-07T01:24:18;52.85;;;28.13;;
44189;SDS011;29856;52.144;5.430;2024-03-07T01:26:44;60.58;;;28.95;;
44189;SDS011;29856;52.144;5.430;2024-03-07T01:29:09;55.35;;;29.40;;
44189;SDS011;29856;52.144;5.430;2024-03-07T01:31:35;59.00;;;30.10;;
44189;SDS011;29856;52.144;5.430;2024-03-07T01:34:01;58.08;;;29.65;;
44189;SDS011;29856;52.144;5.430;2024-03-07T01:36:27;56.33;;;30.27;;
44189;SDS011;29856;52.144;5.430;2024-03-07T01:38:53;62.47;;;30.83;;
44189;SDS011;29856;52.144;5.430;2024-03-07T01:41:19;55.53;;;29.05;;
44189;SDS011;29856;52.144;5.430;2024-03-07T01:43:45;52.88;;;29.83;;
44189;SDS011;29856;52.144;5.430;2024-03-07T01:46:11;58.28;;;29.67;;
44189;SDS011;29856;52.144;5.430;2024-03-07T01:48:37;60.25;;;29.90;;
44189;SDS011;29856;52.144;5.430;2024-03-07T01:51:03;60.35;;;32.53;;
44189;SDS011;29856;52.144;5.430;2024-03-07T01:53:30;60.88;;;31.10;;
44189;SDS011;29856;52.144;5.430;2024-03-07T01:55:56;59.08;;;30.55;;
44189;SDS011;29856;52.144;5.430;2024-03-07T01:58:23;55.03;;;31.13;;
44189;SDS011;29856;52.144;5.430;2024-03-07T02:00:49;58.38;;;30.25;;
44189;SDS011;29856;52.144;5.430;2024-03-07T02:03:15;61.65;;;31.85;;
44189;SDS011;29856;52.144;5.430;2024-03-07T02:05:42;54.15;;;30.02;;
44189;SDS011;29856;52.144;5.430;2024-03-07T02:08:08;60.72;;;29.48;;
44189;SDS011;29856;52.144;5.430;2024-03-07T02:10:33;55.30;;;30.55;;
44189;SDS011;29856;52.144;5.430;2024-03-07T02:12:59;58.30;;;30.67;;
44189;SDS011;29856;52.144;5.430;2024-03-07T02:15:25;59.30;;;31.27;;
44189;SDS011;29856;52.144;5.430;2024-03-07T02:17:51;60.72;;;29.45;;
44189;SDS011;29856;52.144;5.430;2024-03-07T02:20:17;57.00;;;30.13;;
44189;SDS011;29856;52.144;5.430;2024-03-07T02:22:43;58.58;;;29.35;;
44189;SDS011;29856;52.144;5.430;2024-03-07T02:25:09;55.80;;;31.30;;
44189;SDS011;29856;52.144;5.430;2024-03-07T02:27:35;58.35;;;29.27;;
44189;SDS011;29856;52.144;5.430;2024-03-07T02:30:01;53.67;;;28.08;;
44189;SDS011;29856;52.144;5.430;2024-03-07T02:32:27;57.70;;;29.67;;
44189;SDS011;29856;52.144;5.430;2024-03-07T02:34:53;60.45;;;30.60;;
44189;SDS011;29856;52.144;5.430;2024-03-07T02:37:19;58.28;;;30.88;;
44189;SDS011;29856;52.144;5.430;2024-03-07T02:39:45;61.00;;;31.98;;
44189;SDS011;29856;52.144;5.430;2024-03-07T02:42:11;57.65;;;28.58;;
44189;SDS011;29856;52.144;5.430;2024-03-07T02:44:37;67.20;;;30.67;;
44189;SDS011;29856;52.144;5.430;2024-03-07T02:47:02;54.70;;;29.30;;
44189;SDS011;29856;52.144;5.430;2024-03-07T02:49:28;58.70;;;30.10;;
44189;SDS011;29856;52.144;5.430;2024-03-07T02:51:54;58.13;;;28.85;;
44189;SDS011;29856;52.144;5.430;2024-03-07T02:54:20;56.20;;;28.52;;
44189;SDS011;29856;52.144;5.430;2024-03-07T02:56:46;56.33;;;30.00;;
44189;SDS011;29856;52.144;5.430;2024-03-07T02:59:12;55.67;;;28.95;;
44189;SDS011;29856;52.144;5.430;2024-03-07T03:01:38;62.28;;;30.05;;
44189;SDS011;29856;52.144;5.430;2024-03-07T03:04:04;54.53;;;29.98;;
44189;SDS011;29856;52.144;5.430;2024-03-07T03:06:29;57.38;;;29.35;;
44189;SDS011;29856;52.144;5.430;2024-03-07T03:08:55;58.67;;;30.02;;
44189;SDS011;29856;52.144;5.430;2024-03-07T03:11:21;59.85;;;30.05;;
44189;SDS011;29856;52.144;5.430;2024-03-07T03:13:47;53.65;;;27.90;;
44189;SDS011;29856;52.144;5.430;2024-03-07T03:16:13;49.20;;;27.35;;
44189;SDS011;29856;52.144;5.430;2024-03-07T03:18:39;56.75;;;28.35;;
44189;SDS011;29856;52.144;5.430;2024-03-07T03:21:05;52.65;;;27.17;;
44189;SDS011;29856;52.144;5.430;2024-03-07T03:23:31;63.70;;;30.58;;
44189;SDS011;29856;52.144;5.430;2024-03-07T03:25:57;55.35;;;28.20;;
44189;SDS011;29856;52.144;5.430;2024-03-07T03:28:23;53.17;;;27.55;;
44189;SDS011;29856;52.144;5.430;2024-03-07T03:30:49;59.58;;;30.00;;
44189;SDS011;29856;52.144;5.430;2024-03-07T03:33:15;61.17;;;30.63;;
44189;SDS011;29856;52.144;5.430;2024-03-07T03:35:41;65.45;;;32.05;;
44189;SDS011;29856;52.144;5.430;2024-03-07T03:38:07;56.35;;;29.02;;
44189;SDS011;29856;52.144;5.430;2024-03-07T03:40:33;53.95;;;29.23;;
44189;SDS011;29856;52.144;5.430;2024-03-07T03:42:59;58.05;;;28.38;;
44189;SDS011;29856;52.144;5.430;2024-03-07T03:45:25;64.35;;;28.42;;
44189;SDS011;29856;52.144;5.430;2024-03-07T03:47:51;52.03;;;28.17;;
44189;SDS011;29856;52.144;5.430;2024-03-07T03:50:17;57.58;;;28.55;;
44189;SDS011;29856;52.144;5.430;2024-03-07T03:52:43;63.17;;;30.83;;
44189;SDS011;29856;52.144;5.430;2024-03-07T03:55:09;50.58;;;26.58;;
44189;SDS011;29856;52.144;5.430;2024-03-07T03:57:35;55.75;;;28.83;;
44189;SDS011;29856;52.144;5.430;2024-03-07T04:00:05;55.55;;;30.50;;
44189;SDS011;29856;52.144;5.430;2024-03-07T04:02:31;56.75;;;29.17;;
44189;SDS011;29856;52.144;5.430;2024-03-07T04:04:57;56.15;;;28.88;;
44189;SDS011;29856;52.144;5.430;2024-03-07T04:07:23;54.15;;;28.35;;
44189;SDS011;29856;52.144;5.430;2024-03-07T04:09:49;56.70;;;30.65;;
44189;SDS011;29856;52.144;5.430;2024-03-07T04:12:14;62.53;;;30.52;;
44189;SDS011;29856;52.144;5.430;2024-03-07T04:14:40;56.78;;;28.95;;
44189;SDS011;29856;52.144;5.430;2024-03-07T04:17:07;63.17;;;30.40;;
44189;SDS011;29856;52.144;5.430;2024-03-07T04:19:34;57.97;;;30.75;;
44189;SDS011;29856;52.144;5.430;2024-03-07T04:22:00;59.85;;;28.95;;
44189;SDS011;29856;52.144;5.430;2024-03-07T04:24:26;53.30;;;27.98;;
44189;SDS011;29856;52.144;5.430;2024-03-07T04:26:52;56.60;;;28.45;;
44189;SDS011;29856;52.144;5.430;2024-03-07T04:29:18;56.80;;;30.23;;
44189;SDS011;29856;52.144;5.430;2024-03-07T04:31:44;56.13;;;30.05;;
44189;SDS011;29856;52.144;5.430;2024-03-07T04:34:10;47.00;;;26.70;;
44189;SDS011;29856;52.144;5.430;2024-03-07T04:36:35;58.30;;;31.15;;
44189;SDS011;29856;52.144;5.430;2024-03-07T04:39:01;60.88;;;28.35;;
44189;SDS011;29856;52.144;5.430;2024-03-07T04:41:27;61.47;;;30.02;;
44189;SDS011;29856;52.144;5.430;2024-03-07T04:43:53;66.78;;;30.83;;
44189;SDS011;29856;52.144;5.430;2024-03-07T04:46:19;57.90;;;28.63;;
44189;SDS011;29856;52.144;5.430;2024-03-07T04:48:45;59.78;;;30.80;;
44189;SDS011;29856;52.144;5.430;2024-03-07T04:51:11;56.33;;;29.38;;
44189;SDS011;29856;52.144;5.430;2024-03-07T04:53:37;56.33;;;29.98;;
44189;SDS011;29856;52.144;5.430;2024-03-07T04:56:03;60.03;;;29.48;;
44189;SDS011;29856;52.144;5.430;2024-03-07T04:58:28;54.40;;;27.92;;
44189;SDS011;29856;52.144;5.430;2024-03-07T05:00:54;54.83;;;29.80;;
44189;SDS011;29856;52.144;5.430;2024-03-07T05:03:20;55.28;;;29.85;;
44189;SDS011;29856;52.144;5.430;2024-03-07T05:05:46;53.92;;;28.77;;
44189;SDS011;29856;52.144;5.430;2024-03-07T05:08:12;62.25;;;29.75;;
44189;SDS011;29856;52.144;5.430;2024-03-07T05:10:38;57.47;;;30.02;;
44189;SDS011;29856;52.144;5.430;2024-03-07T05:13:04;58.70;;;30.27;;
44189;SDS011;29856;52.144;5.430;2024-03-07T05:15:30;57.53;;;30.30;;
44189;SDS011;29856;52.144;5.430;2024-03-07T05:17:55;57.97;;;31.00;;
44189;SDS011;29856;52.144;5.430;2024-03-07T05:20:21;63.78;;;32.15;;
44189;SDS011;29856;52.144;5.430;2024-03-07T05:22:47;62.25;;;31.42;;
44189;SDS011;29856;52.144;5.430;2024-03-07T05:25:13;59.38;;;29.80;;
44189;SDS011;29856;52.144;5.430;2024-03-07T05:27:39;63.88;;;31.02;;
44189;SDS011;29856;52.144;5.430;2024-03-07T05:30:05;59.67;;;31.58;;
44189;SDS011;29856;52.144;5.430;2024-03-07T05:32:31;59.10;;;29.48;;
44189;SDS011;29856;52.144;5.430;2024-03-07T05:34:57;56.08;;;27.45;;
44189;SDS011;29856;52.144;5.430;2024-03-07T05:37:23;56.40;;;30.00;;
44189;SDS011;29856;52.144;5.430;2024-03-07T05:39:49;52.30;;;27.73;;
44189;SDS011;29856;52.144;5.430;2024-03-07T05:42:15;55.92;;;31.83;;
44189;SDS011;29856;52.144;5.430;2024-03-07T05:44:41;56.85;;;28.63;;
44189;SDS011;29856;52.144;5.430;2024-03-07T05:47:07;49.55;;;26.52;;
44189;SDS011;29856;52.144;5.430;2024-03-07T05:49:33;50.65;;;26.67;;
44189;SDS011;29856;52.144;5.430;2024-03-07T05:51:59;54.38;;;30.30;;
44189;SDS011;29856;52.144;5.430;2024-03-07T05:54:25;54.10;;;28.88;;
44189;SDS011;29856;52.144;5.430;2024-03-07T05:56:51;54.63;;;29.08;;
44189;SDS011;29856;52.144;5.430;2024-03-07T05:59:17;53.40;;;30.05;;
44189;SDS011;29856;52.144;5.430;2024-03-07T06:01:43;52.78;;;30.48;;
44189;SDS011;29856;52.144;5.430;2024-03-07T06:04:09;54.13;;;28.60;;
44189;SDS011;29856;52.144;5.430;2024-03-07T06:06:35;45.90;;;26.55;;
44189;SDS011;29856;52.144;5.430;2024-03-07T06:09:02;60.42;;;30.90;;
44189;SDS011;29856;52.144;5.430;2024-03-07T06:11:28;51.00;;;28.10;;
44189;SDS011;29856;52.144;5.430;2024-03-07T06:13:54;55.97;;;29.02;;
44189;SDS011;29856;52.144;5.430;2024-03-07T06:16:19;53.05;;;28.52;;
44189;SDS011;29856;52.144;5.430;2024-03-07T06:18:45;55.17;;;28.35;;
44189;SDS011;29856;52.144;5.430;2024-03-07T06:21:11;60.80;;;30.55;;
44189;SDS011;29856;52.144;5.430;2024-03-07T06:23:37;57.78;;;30.02;;
44189;SDS011;29856;52.144;5.430;2024-03-07T06:26:03;54.78;;;28.58;;
44189;SDS011;29856;52.144;5.430;2024-03-07T06:28:29;58.80;;;31.33;;
44189;SDS011;29856;52.144;5.430;2024-03-07T06:30:55;58.20;;;28.50;;
44189;SDS011;29856;52.144;5.430;2024-03-07T06:33:21;70.05;;;32.22;;
44189;SDS011;29856;52.144;5.430;2024-03-07T06:35:47;56.08;;;30.23;;
44189;SDS011;29856;52.144;5.430;2024-03-07T06:38:13;53.13;;;28.20;;
44189;SDS011;29856;52.144;5.430;2024-03-07T06:40:40;61.75;;;31.13;;
44189;SDS011;29856;52.144;5.430;2024-03-07T06:43:06;58.85;;;29.20;;
44189;SDS011;29856;52.144;5.430;2024-03-07T06:45:32;56.40;;;30.00;;
44189;SDS011;29856;52.144;5.430;2024-03-07T06:47:59;60.25;;;30.75;;
44189;SDS011;29856;52.144;5.430;2024-03-07T06:50:24;54.78;;;28.25;;
44189;SDS011;29856;52.144;5.430;2024-03-07T06:52:50;54.63;;;28.52;;
44189;SDS011;29856;52.144;5.430;2024-03-07T06:55:16;58.38;;;30.63;;
44189;SDS011;29856;52.144;5.430;2024-03-07T06:57:43;53.20;;;27.00;;
44189;SDS011;29856;52.144;5.430;2024-03-07T07:00:10;50.67;;;27.67;;
44189;SDS011;29856;52.144;5.430;2024-03-07T07:02:39;54.55;;;29.55;;
44189;SDS011;29856;52.144;5.430;2024-03-07T07:05:06;54.13;;;28.73;;
44189;SDS011;29856;52.144;5.430;2024-03-07T07:07:32;50.28;;;28.50;;
44189;SDS011;29856;52.144;5.430;2024-03-07T07:09:58;53.97;;;28.17;;
44189;SDS011;29856;52.144;5.430;2024-03-07T07:12:24;58.33;;;30.27;;
44189;SDS011;29856;52.144;5.430;2024-03-07T07:14:50;53.47;;;28.40;;
44189;SDS011;29856;52.144;5.430;2024-03-07T07:17:16;52.25;;;28.75;;
44189;SDS011;29856;52.144;5.430;2024-03-07T07:19:41;48.45;;;27.10;;
44189;SDS011;29856;52.144;5.430;2024-03-07T07:22:07;47.08;;;27.02;;
44189;SDS011;29856;52.144;5.430;2024-03-07T07:24:33;48.72;;;26.75;;
44189;SDS011;29856;52.144;5.430;2024-03-07T07:26:59;54.13;;;28.70;;
44189;SDS011;29856;52.144;5.430;2024-03-07T07:29:25;49.45;;;26.52;;
44189;SDS011;29856;52.144;5.430;2024-03-07T07:31:51;51.72;;;27.67;;
44189;SDS011;29856;52.144;5.430;2024-03-07T07:34:17;47.47;;;25.90;;
44189;SDS011;29856;52.144;5.430;2024-03-07T07:36:42;44.58;;;25.58;;
44189;SDS011;29856;52.144;5.430;2024-03-07T07:39:08;44.25;;;25.30;;
44189;SDS011;29856;52.144;5.430;2024-03-07T07:41:34;52.55;;;26.30;;
44189;SDS011;29856;52.144;5.430;2024-03-07T07:44:00;49.20;;;25.42;;
44189;SDS011;29856;52.144;5.430;2024-03-07T07:46:26;41.30;;;22.23;;
44189;SDS011;29856;52.144;5.430;2024-03-07T07:48:52;45.88;;;24.13;;
44189;SDS011;29856;52.144;5.430;2024-03-07T07:51:18;45.20;;;25.17;;
44189;SDS011;29856;52.144;5.430;2024-03-07T07:53:43;45.08;;;24.63;;
44189;SDS011;29856;52.144;5.430;2024-03-07T07:56:09;48.55;;;24.27;;
44189;SDS011;29856;52.144;5.430;2024-03-07T07:58:35;46.30;;;25.05;;
44189;SDS011;29856;52.144;5.430;2024-03-07T08:01:01;44.17;;;24.63;;
44189;SDS011;29856;52.144;5.430;2024-03-07T08:03:27;37.75;;;22.58;;
44189;SDS011;29856;52.144;5.430;2024-03-07T08:05:53;38.83;;;23.83;;
44189;SDS011;29856;52.144;5.430;2024-03-07T08:08:19;40.00;;;22.83;;
44189;SDS011;29856;52.144;5.430;2024-03-07T08:10:45;40.20;;;22.50;;
44189;SDS011;29856;52.144;5.430;2024-03-07T08:13:11;39.60;;;22.98;;
44189;SDS011;29856;52.144;5.430;2024-03-07T08:15:37;36.10;;;20.05;;
44189;SDS011;29856;52.144;5.430;2024-03-07T08:18:03;41.95;;;21.75;;
44189;SDS011;29856;52.144;5.430;2024-03-07T08:20:29;36.47;;;21.40;;
44189;SDS011;29856;52.144;5.430;2024-03-07T08:22:55;33.13;;;21.20;;
44189;SDS011;29856;52.144;5.430;2024-03-07T08:25:22;32.28;;;19.48;;
44189;SDS011;29856;52.144;5.430;2024-03-07T08:27:49;37.90;;;22.08;;
44189;SDS011;29856;52.144;5.430;2024-03-07T08:30:15;40.63;;;19.33;;
44189;SDS011;29856;52.144;5.430;2024-03-07T08:32:42;41.88;;;21.70;;
44189;SDS011;29856;52.144;5.430;2024-03-07T08:35:08;30.20;;;16.52;;
44189;SDS011;29856;52.144;5.430;2024-03-07T08:37:41;30.98;;;17.70;;
44189;SDS011;29856;52.144;5.430;2024-03-07T08:40:07;29.15;;;15.07;;
44189;SDS011;29856;52.144;5.430;2024-03-07T08:42:34;31.73;;;18.70;;
44189;SDS011;29856;52.144;5.430;2024-03-07T08:45:00;30.08;;;16.38;;
44189;SDS011;29856;52.144;5.430;2024-03-07T08:47:26;33.13;;;17.88;;
44189;SDS011;29856;52.144;5.430;2024-03-07T08:49:52;27.33;;;14.13;;
44189;SDS011;29856;52.144;5.430;2024-03-07T08:52:18;30.35;;;17.75;;
44189;SDS011;29856;52.144;5.430;2024-03-07T08:54:43;30.33;;;17.00;;
44189;SDS011;29856;52.144;5.430;2024-03-07T08:57:09;25.27;;;14.68;;
44189;SDS011;29856;52.144;5.430;2024-03-07T08:59:35;27.80;;;16.52;;
44189;SDS011;29856;52.144;5.430;2024-03-07T09:02:01;24.00;;;14.77;;
44189;SDS011;29856;52.144;5.430;2024-03-07T09:04:27;20.45;;;11.82;;
44189;SDS011;29856;52.144;5.430;2024-03-07T09:06:53;23.00;;;13.07;;
44189;SDS011;29856;52.144;5.430;2024-03-07T09:09:19;24.60;;;15.60;;
44189;SDS011;29856;52.144;5.430;2024-03-07T09:11:45;27.85;;;16.02;;
44189;SDS011;29856;52.144;5.430;2024-03-07T09:14:11;24.23;;;14.43;;
44189;SDS011;29856;52.144;5.430;2024-03-07T09:16:37;18.08;;;12.13;;
44189;SDS011;29856;52.144;5.430;2024-03-07T09:19:03;27.42;;;13.57;;
44189;SDS011;29856;52.144;5.430;2024-03-07T09:21:29;19.13;;;11.20;;
44189;SDS011;29856;52.144;5.430;2024-03-07T09:23:55;22.33;;;13.85;;
44189;SDS011;29856;52.144;5.430;2024-03-07T09:26:20;20.13;;;12.57;;
44189;SDS011;29856;52.144;5.430;2024-03-07T09:28:46;17.75;;;12.13;;
44189;SDS011;29856;52.144;5.430;2024-03-07T09:31:15;21.58;;;14.35;;
44189;SDS011;29856;52.144;5.430;2024-03-07T09:33:41;17.63;;;11.50;;
44189;SDS011;29856;52.144;5.430;2024-03-07T09:36:07;22.15;;;12.85;;
44189;SDS011;29856;52.144;5.430;2024-03-07T09:38:33;22.25;;;13.82;;
44189;SDS011;29856;52.144;5.430;2024-03-07T09:40:59;14.93;;;7.60;;
44189;SDS011;29856;52.144;5.430;2024-03-07T09:43:27;20.13;;;12.63;;
44189;SDS011;29856;52.144;5.430;2024-03-07T09:45:53;22.85;;;13.95;;
44189;SDS011;29856;52.144;5.430;2024-03-07T09:48:19;20.70;;;13.38;;
44189;SDS011;29856;52.144;5.430;2024-03-07T09:50:46;23.23;;;14.88;;
44189;SDS011;29856;52.144;5.430;2024-03-07T09:53:14;19.63;;;13.13;;
44189;SDS011;29856;52.144;5.430;2024-03-07T09:55:41;23.85;;;13.75;;
44189;SDS011;29856;52.144;5.430;2024-03-07T09:58:07;20.27;;;12.63;;
44189;SDS011;29856;52.144;5.430;2024-03-07T10:00:34;25.75;;;14.05;;
44189;SDS011;29856;52.144;5.430;2024-03-07T10:05:30;24.70;;;15.07;;
44189;SDS011;29856;52.144;5.430;2024-03-07T10:07:56;25.83;;;14.32;;
44189;SDS011;29856;52.144;5.430;2024-03-07T10:10:22;21.92;;;13.85;;
44189;SDS011;29856;52.144;5.430;2024-03-07T10:12:49;23.45;;;13.65;;
44189;SDS011;29856;52.144;5.430;2024-03-07T10:15:15;19.35;;;11.38;;
44189;SDS011;29856;52.144;5.430;2024-03-07T10:17:41;23.30;;;14.63;;
44189;SDS011;29856;52.144;5.430;2024-03-07T10:20:07;28.23;;;14.95;;
44189;SDS011;29856;52.144;5.430;2024-03-07T10:22:33;21.45;;;12.50;;
44189;SDS011;29856;52.144;5.430;2024-03-07T10:24:58;21.20;;;13.18;;
44189;SDS011;29856;52.144;5.430;2024-03-07T10:27:25;23.60;;;15.38;;
44189;SDS011;29856;52.144;5.430;2024-03-07T10:29:51;24.48;;;14.13;;
44189;SDS011;29856;52.144;5.430;2024-03-07T10:32:21;24.08;;;14.25;;
44189;SDS011;29856;52.144;5.430;2024-03-07T10:34:47;25.83;;;14.80;;
44189;SDS011;29856;52.144;5.430;2024-03-07T10:37:14;24.95;;;14.45;;
44189;SDS011;29856;52.144;5.430;2024-03-07T10:39:40;22.35;;;14.60;;
44189;SDS011;29856;52.144;5.430;2024-03-07T10:42:06;22.67;;;14.27;;
44189;SDS011;29856;52.144;5.430;2024-03-07T10:44:31;23.42;;;14.02;;
44189;SDS011;29856;52.144;5.430;2024-03-07T10:46:58;23.55;;;13.75;;
44189;SDS011;29856;52.144;5.430;2024-03-07T10:49:25;22.73;;;13.45;;
44189;SDS011;29856;52.144;5.430;2024-03-07T10:51:57;24.05;;;14.38;;
44189;SDS011;29856;52.144;5.430;2024-03-07T10:54:36;23.00;;;12.48;;
44189;SDS011;29856;52.144;5.430;2024-03-07T10:57:26;19.73;;;11.82;;
44189;SDS011;29856;52.144;5.430;2024-03-07T11:00:00;18.98;;;11.68;;
44189;SDS011;29856;52.144;5.430;2024-03-07T11:02:33;22.17;;;13.05;;
44189;SDS011;29856;52.144;5.430;2024-03-07T11:04:59;22.02;;;13.68;;
44189;SDS011;29856;52.144;5.430;2024-03-07T11:07:25;22.55;;;12.90;;
44189;SDS011;29856;52.144;5.430;2024-03-07T11:09:51;22.15;;;13.57;;
44189;SDS011;29856;52.144;5.430;2024-03-07T11:12:19;26.55;;;15.05;;
44189;SDS011;29856;52.144;5.430;2024-03-07T11:14:45;24.08;;;14.88;;
44189;SDS011;29856;52.144;5.430;2024-03-07T11:17:11;23.25;;;14.10;;
44189;SDS011;29856;52.144;5.430;2024-03-07T11:19:37;23.08;;;13.10;;
44189;SDS011;29856;52.144;5.430;2024-03-07T11:22:03;23.58;;;14.02;;
44189;SDS011;29856;52.144;5.430;2024-03-07T11:24:30;23.88;;;13.45;;
44189;SDS011;29856;52.144;5.430;2024-03-07T11:26:56;22.27;;;12.98;;
44189;SDS011;29856;52.144;5.430;2024-03-07T11:32:07;22.88;;;14.15;;
44189;SDS011;29856;52.144;5.430;2024-03-07T11:34:33;23.02;;;13.43;;
44189;SDS011;29856;52.144;5.430;2024-03-07T11:37:03;19.83;;;11.35;;
44189;SDS011;29856;52.144;5.430;2024-03-07T11:39:41;24.10;;;13.45;;
44189;SDS011;29856;52.144;5.430;2024-03-07T11:42:43;22.55;;;14.43;;
44189;SDS011;29856;52.144;5.430;2024-03-07T11:45:00;23.40;;;14.43;;
44189;SDS011;29856;52.144;5.430;2024-03-07T11:47:26;24.42;;;14.73;;
44189;SDS011;29856;52.144;5.430;2024-03-07T11:49:52;24.90;;;13.65;;
44189;SDS011;29856;52.144;5.430;2024-03-07T11:52:19;22.30;;;13.43;;
44189;SDS011;29856;52.144;5.430;2024-03-07T11:54:45;21.15;;;12.80;;
44189;SDS011;29856;52.144;5.430;2024-03-07T11:57:10;23.88;;;14.32;;
44189;SDS011;29856;52.144;5.430;2024-03-07T11:59:36;22.65;;;14.43;;
44189;SDS011;29856;52.144;5.430;2024-03-07T12:02:02;21.05;;;13.65;;
44189;SDS011;29856;52.144;5.430;2024-03-07T12:04:28;20.65;;;12.63;;
44189;SDS011;29856;52.144;5.430;2024-03-07T12:06:54;23.70;;;14.23;;
44189;SDS011;29856;52.144;5.430;2024-03-07T12:09:20;20.73;;;12.90;;
44189;SDS011;29856;52.144;5.430;2024-03-07T12:11:46;22.58;;;13.25;;
44189;SDS011;29856;52.144;5.430;2024-03-07T12:14:12;23.08;;;14.43;;
44189;SDS011;29856;52.144;5.430;2024-03-07T12:16:38;27.42;;;13.77;;
44189;SDS011;29856;52.144;5.430;2024-03-07T12:19:04;22.38;;;13.40;;
44189;SDS011;29856;52.144;5.430;2024-03-07T12:21:30;23.30;;;13.18;;
44189;SDS011;29856;52.144;5.430;2024-03-07T12:23:56;23.30;;;12.88;;
44189;SDS011;29856;52.144;5.430;2024-03-07T12:26:22;20.63;;;13.23;;
44189;SDS011;29856;52.144;5.430;2024-03-07T12:28:47;20.25;;;10.00;;
44189;SDS011;29856;52.144;5.430;2024-03-07T12:31:13;16.63;;;8.85;;
44189;SDS011;29856;52.144;5.430;2024-03-07T12:33:39;22.70;;;12.32;;
44189;SDS011;29856;52.144;5.430;2024-03-07T12:36:05;22.83;;;13.25;;
44189;SDS011;29856;52.144;5.430;2024-03-07T12:38:32;20.45;;;14.52;;
44189;SDS011;29856;52.144;5.430;2024-03-07T12:41:01;22.92;;;12.35;;
44189;SDS011;29856;52.144;5.430;2024-03-07T12:43:28;19.52;;;11.68;;
44189;SDS011;29856;52.144;5.430;2024-03-07T12:45:53;18.13;;;10.63;;
44189;SDS011;29856;52.144;5.430;2024-03-07T12:48:19;17.40;;;10.13;;
44189;SDS011;29856;52.144;5.430;2024-03-07T12:50:45;22.15;;;11.48;;
44189;SDS011;29856;52.144;5.430;2024-03-07T12:53:11;16.88;;;10.32;;
44189;SDS011;29856;52.144;5.430;2024-03-07T12:55:40;17.40;;;10.77;;
44189;SDS011;29856;52.144;5.430;2024-03-07T12:58:07;20.75;;;11.35;;
44189;SDS011;29856;52.144;5.430;2024-03-07T13:00:33;21.98;;;12.50;;
44189;SDS011;29856;52.144;5.430;2024-03-07T13:02:59;19.67;;;11.45;;
44189;SDS011;29856;52.144;5.430;2024-03-07T13:05:25;17.60;;;11.68;;
44189;SDS011;29856;52.144;5.430;2024-03-07T13:07:51;21.58;;;11.25;;
44189;SDS011;29856;52.144;5.430;2024-03-07T13:10:17;18.27;;;10.07;;
44189;SDS011;29856;52.144;5.430;2024-03-07T13:12:43;15.23;;;9.23;;
44189;SDS011;29856;52.144;5.430;2024-03-07T13:15:09;19.05;;;11.45;;
44189;SDS011;29856;52.144;5.430;2024-03-07T13:17:35;17.90;;;10.60;;
44189;SDS011;29856;52.144;5.430;2024-03-07T13:20:01;16.90;;;9.55;;
44189;SDS011;29856;52.144;5.430;2024-03-07T13:22:27;15.98;;;9.05;;
44189;SDS011;29856;52.144;5.430;2024-03-07T13:24:53;18.88;;;11.95;;
44189;SDS011;29856;52.144;5.430;2024-03-07T13:27:19;21.38;;;13.02;;
44189;SDS011;29856;52.144;5.430;2024-03-07T13:29:45;21.02;;;10.75;;
44189;SDS011;29856;52.144;5.430;2024-03-07T13:32:11;18.88;;;13.20;;
44189;SDS011;29856;52.144;5.430;2024-03-07T13:34:37;14.95;;;9.23;;
44189;SDS011;29856;52.144;5.430;2024-03-07T13:37:02;15.70;;;9.60;;
44189;SDS011;29856;52.144;5.430;2024-03-07T13:39:28;17.52;;;11.63;;
44189;SDS011;29856;52.144;5.430;2024-03-07T13:41:54;20.65;;;12.30;;
44189;SDS011;29856;52.144;5.430;2024-03-07T13:44:20;18.83;;;12.48;;
44189;SDS011;29856;52.144;5.430;2024-03-07T13:46:46;18.77;;;13.43;;
44189;SDS011;29856;52.144;5.430;2024-03-07T13:49:12;22.55;;;12.25;;
44189;SDS011;29856;52.144;5.430;2024-03-07T13:51:41;19.38;;;13.30;;
44189;SDS011;29856;52.144;5.430;2024-03-07T13:54:07;18.13;;;12.80;;
44189;SDS011;29856;52.144;5.430;2024-03-07T13:56:40;16.60;;;11.68;;
44189;SDS011;29856;52.144;5.430;2024-03-07T13:59:13;18.90;;;13.73;;
44189;SDS011;29856;52.144;5.430;2024-03-07T14:18:09;22.55;;;11.45;;
44189;SDS011;29856;52.144;5.430;2024-03-07T14:23:14;15.82;;;11.25;;
44189;SDS011;29856;52.144;5.430;2024-03-07T14:31:05;14.45;;;10.80;;
44189;SDS011;29856;52.144;5.430;2024-03-07T14:33:33;16.08;;;10.73;;
44189;SDS011;29856;52.144;5.430;2024-03-07T14:36:06;15.30;;;9.88;;
44189;SDS011;29856;52.144;5.430;2024-03-07T14:38:52;15.88;;;10.20;;
44189;SDS011;29856;52.144;5.430;2024-03-07T14:41:19;16.23;;;10.55;;
44189;SDS011;29856;52.144;5.430;2024-03-07T14:43:46;17.17;;;10.70;;
44189;SDS011;29856;52.144;5.430;2024-03-07T14:46:13;15.50;;;9.80;;